sensor_id;sensor_type;location;lat;lon;timestamp;temperature;humidity
45233;DHT22;30969;51.052;17.056;2023-02-28T00:00:40;3.90;61.10
45233;DHT22;30969;51.052;17.056;2023-02-28T00:05:52;3.90;60.90
45233;DHT22;30969;51.052;17.056;2023-02-28T00:10:55;3.90;60.80
45233;DHT22;30969;51.052;17.056;2023-02-28T00:16:02;3.90;60.80
45233;DHT22;30969;51.052;17.056;2023-02-28T00:21:06;4.00;60.70
45233;DHT22;30969;51.052;17.056;2023-02-28T00:26:10;4.00;60.60
45233;DHT22;30969;51.052;17.056;2023-02-28T00:31:15;3.90;60.40
45233;DHT22;30969;51.052;17.056;2023-02-28T00:36:18;3.90;60.50
45233;DHT22;30969;51.052;17.056;2023-02-28T00:41:22;4.00;60.50
45233;DHT22;30969;51.052;17.056;2023-02-28T00:46:29;4.00;60.30
45233;DHT22;30969;51.052;17.056;2023-02-28T00:51:32;4.00;60.10
45233;DHT22;30969;51.052;17.056;2023-02-28T00:56:36;4.00;60.10
45233;DHT22;30969;51.052;17.056;2023-02-28T01:01:41;4.00;60.00
45233;DHT22;30969;51.052;17.056;2023-02-28T01:06:45;4.00;60.00
45233;DHT22;30969;51.052;17.056;2023-02-28T01:11:51;4.00;59.80
45233;DHT22;30969;51.052;17.056;2023-02-28T01:16:55;4.00;59.70
45233;DHT22;30969;51.052;17.056;2023-02-28T01:22:01;4.00;59.50
45233;DHT22;30969;51.052;17.056;2023-02-28T01:27:04;4.00;59.30
45233;DHT22;30969;51.052;17.056;2023-02-28T01:32:09;3.90;59.10
45233;DHT22;30969;51.052;17.056;2023-02-28T01:37:13;3.90;59.30
45233;DHT22;30969;51.052;17.056;2023-02-28T01:42:17;3.80;59.30
45233;DHT22;30969;51.052;17.056;2023-02-28T01:47:22;3.90;59.40
45233;DHT22;30969;51.052;17.056;2023-02-28T01:52:26;3.80;59.30
45233;DHT22;30969;51.052;17.056;2023-02-28T01:57:33;3.80;59.30
45233;DHT22;30969;51.052;17.056;2023-02-28T02:02:42;3.70;59.60
45233;DHT22;30969;51.052;17.056;2023-02-28T02:07:49;3.80;59.60
45233;DHT22;30969;51.052;17.056;2023-02-28T02:13:15;3.70;59.80
45233;DHT22;30969;51.052;17.056;2023-02-28T02:18:27;3.70;60.00
45233;DHT22;30969;51.052;17.056;2023-02-28T02:35:09;3.70;60.40
45233;DHT22;30969;51.052;17.056;2023-02-28T02:40:18;3.70;60.40
45233;DHT22;30969;51.052;17.056;2023-02-28T02:45:27;3.60;60.50
45233;DHT22;30969;51.052;17.056;2023-02-28T02:50:42;3.70;60.60
45233;DHT22;30969;51.052;17.056;2023-02-28T02:55:49;3.70;60.60
45233;DHT22;30969;51.052;17.056;2023-02-28T03:00:58;3.70;60.60
45233;DHT22;30969;51.052;17.056;2023-02-28T03:06:05;3.70;60.60
45233;DHT22;30969;51.052;17.056;2023-02-28T03:11:13;3.80;60.60
45233;DHT22;30969;51.052;17.056;2023-02-28T03:16:36;3.80;60.50
45233;DHT22;30969;51.052;17.056;2023-02-28T03:21:46;3.70;60.40
45233;DHT22;30969;51.052;17.056;2023-02-28T03:26:55;3.70;60.60
45233;DHT22;30969;51.052;17.056;2023-02-28T03:32:05;3.60;60.70
45233;DHT22;30969;51.052;17.056;2023-02-28T03:37:18;3.70;60.70
45233;DHT22;30969;51.052;17.056;2023-02-28T03:42:25;3.60;60.80
45233;DHT22;30969;51.052;17.056;2023-02-28T03:47:35;3.60;60.90
45233;DHT22;30969;51.052;17.056;2023-02-28T03:52:46;3.60;60.90
45233;DHT22;30969;51.052;17.056;2023-02-28T03:57:58;3.60;60.90
45233;DHT22;30969;51.052;17.056;2023-02-28T04:03:03;3.60;61.00
45233;DHT22;30969;51.052;17.056;2023-02-28T04:08:09;3.60;60.90
45233;DHT22;30969;51.052;17.056;2023-02-28T04:13:12;3.60;60.80
45233;DHT22;30969;51.052;17.056;2023-02-28T04:18:15;3.60;60.80
45233;DHT22;30969;51.052;17.056;2023-02-28T04:23:20;3.50;60.90
45233;DHT22;30969;51.052;17.056;2023-02-28T04:28:24;3.50;61.20
45233;DHT22;30969;51.052;17.056;2023-02-28T04:33:28;3.50;61.00
45233;DHT22;30969;51.052;17.056;2023-02-28T04:38:35;3.50;60.90
45233;DHT22;30969;51.052;17.056;2023-02-28T04:43:38;3.60;60.70
45233;DHT22;30969;51.052;17.056;2023-02-28T04:48:42;3.60;60.50
45233;DHT22;30969;51.052;17.056;2023-02-28T04:53:48;3.60;60.40
45233;DHT22;30969;51.052;17.056;2023-02-28T04:58:51;3.60;60.30
45233;DHT22;30969;51.052;17.056;2023-02-28T05:03:57;3.60;60.40
45233;DHT22;30969;51.052;17.056;2023-02-28T05:09:02;3.50;60.30
45233;DHT22;30969;51.052;17.056;2023-02-28T05:14:09;3.50;60.40
45233;DHT22;30969;51.052;17.056;2023-02-28T05:19:13;3.60;60.20
45233;DHT22;30969;51.052;17.056;2023-02-28T05:24:18;3.50;60.50
45233;DHT22;30969;51.052;17.056;2023-02-28T05:29:25;3.50;60.70
45233;DHT22;30969;51.052;17.056;2023-02-28T05:34:28;3.40;60.70
45233;DHT22;30969;51.052;17.056;2023-02-28T05:39:33;3.40;60.80
45233;DHT22;30969;51.052;17.056;2023-02-28T05:44:36;3.40;61.20
45233;DHT22;30969;51.052;17.056;2023-02-28T05:49:40;3.40;61.50
45233;DHT22;30969;51.052;17.056;2023-02-28T05:54:46;3.40;61.40
45233;DHT22;30969;51.052;17.056;2023-02-28T05:59:49;3.50;61.30
45233;DHT22;30969;51.052;17.056;2023-02-28T06:04:53;3.50;61.20
45233;DHT22;30969;51.052;17.056;2023-02-28T06:09:58;3.60;61.20
45233;DHT22;30969;51.052;17.056;2023-02-28T06:15:01;3.60;61.00
45233;DHT22;30969;51.052;17.056;2023-02-28T06:20:07;3.60;60.60
45233;DHT22;30969;51.052;17.056;2023-02-28T06:25:12;3.60;60.00
45233;DHT22;30969;51.052;17.056;2023-02-28T06:30:16;3.60;59.70
45233;DHT22;30969;51.052;17.056;2023-02-28T06:35:20;3.70;59.90
45233;DHT22;30969;51.052;17.056;2023-02-28T06:40:25;3.70;59.80
45233;DHT22;30969;51.052;17.056;2023-02-28T06:45:29;3.80;59.30
45233;DHT22;30969;51.052;17.056;2023-02-28T06:50:32;3.80;59.30
45233;DHT22;30969;51.052;17.056;2023-02-28T06:55:39;3.90;59.10
45233;DHT22;30969;51.052;17.056;2023-02-28T07:00:43;3.90;58.90
45233;DHT22;30969;51.052;17.056;2023-02-28T07:05:47;3.90;58.20
45233;DHT22;30969;51.052;17.056;2023-02-28T07:10:53;3.90;58.00
45233;DHT22;30969;51.052;17.056;2023-02-28T07:15:58;3.90;58.10
45233;DHT22;30969;51.052;17.056;2023-02-28T07:21:03;3.90;58.20
45233;DHT22;30969;51.052;17.056;2023-02-28T07:26:11;3.90;58.00
45233;DHT22;30969;51.052;17.056;2023-02-28T07:31:17;4.00;57.30
45233;DHT22;30969;51.052;17.056;2023-02-28T07:36:21;4.00;57.50
45233;DHT22;30969;51.052;17.056;2023-02-28T07:41:26;4.00;56.90
45233;DHT22;30969;51.052;17.056;2023-02-28T07:46:30;4.00;56.70
45233;DHT22;30969;51.052;17.056;2023-02-28T07:51:38;4.10;56.10
45233;DHT22;30969;51.052;17.056;2023-02-28T07:56:43;4.10;56.10
45233;DHT22;30969;51.052;17.056;2023-02-28T08:01:46;4.10;56.00
45233;DHT22;30969;51.052;17.056;2023-02-28T08:06:52;4.10;55.80
45233;DHT22;30969;51.052;17.056;2023-02-28T08:11:57;4.10;55.70
45233;DHT22;30969;51.052;17.056;2023-02-28T08:17:03;4.10;55.60
45233;DHT22;30969;51.052;17.056;2023-02-28T08:22:07;4.20;55.60
45233;DHT22;30969;51.052;17.056;2023-02-28T08:27:27;4.20;55.50
45233;DHT22;30969;51.052;17.056;2023-02-28T08:32:32;4.20;55.30
45233;DHT22;30969;51.052;17.056;2023-02-28T08:37:36;4.20;55.00
45233;DHT22;30969;51.052;17.056;2023-02-28T08:42:41;4.30;54.70
45233;DHT22;30969;51.052;17.056;2023-02-28T08:47:44;4.30;54.50
45233;DHT22;30969;51.052;17.056;2023-02-28T08:52:47;4.30;54.50
45233;DHT22;30969;51.052;17.056;2023-02-28T08:57:52;4.40;54.50
45233;DHT22;30969;51.052;17.056;2023-02-28T09:02:57;4.40;54.40
45233;DHT22;30969;51.052;17.056;2023-02-28T09:08:01;4.40;53.80
45233;DHT22;30969;51.052;17.056;2023-02-28T09:13:07;4.40;52.20
45233;DHT22;30969;51.052;17.056;2023-02-28T09:18:11;4.40;52.90
45233;DHT22;30969;51.052;17.056;2023-02-28T09:23:15;4.50;52.90
45233;DHT22;30969;51.052;17.056;2023-02-28T09:28:21;4.50;51.80
45233;DHT22;30969;51.052;17.056;2023-02-28T09:33:26;4.50;52.00
45233;DHT22;30969;51.052;17.056;2023-02-28T09:38:29;4.60;52.40
45233;DHT22;30969;51.052;17.056;2023-02-28T09:43:38;4.70;51.80
45233;DHT22;30969;51.052;17.056;2023-02-28T09:48:46;4.70;51.90
45233;DHT22;30969;51.052;17.056;2023-02-28T09:53:51;4.80;51.80
45233;DHT22;30969;51.052;17.056;2023-02-28T09:59:09;4.80;51.50
45233;DHT22;30969;51.052;17.056;2023-02-28T10:04:25;4.90;51.80
45233;DHT22;30969;51.052;17.056;2023-02-28T10:09:32;5.00;51.20
45233;DHT22;30969;51.052;17.056;2023-02-28T10:14:39;4.90;50.30
45233;DHT22;30969;51.052;17.056;2023-02-28T10:19:49;5.00;51.20
45233;DHT22;30969;51.052;17.056;2023-02-28T10:24:57;5.10;51.70
45233;DHT22;30969;51.052;17.056;2023-02-28T10:30:12;5.20;51.70
45233;DHT22;30969;51.052;17.056;2023-02-28T10:35:18;5.30;50.70
45233;DHT22;30969;51.052;17.056;2023-02-28T10:40:29;5.40;51.00
45233;DHT22;30969;51.052;17.056;2023-02-28T10:45:35;5.50;49.90
45233;DHT22;30969;51.052;17.056;2023-02-28T10:50:44;5.50;50.70
45233;DHT22;30969;51.052;17.056;2023-02-28T10:55:58;5.70;50.30
45233;DHT22;30969;51.052;17.056;2023-02-28T11:01:04;5.80;50.60
45233;DHT22;30969;51.052;17.056;2023-02-28T11:06:14;5.80;48.20
45233;DHT22;30969;51.052;17.056;2023-02-28T11:11:19;5.80;47.80
45233;DHT22;30969;51.052;17.056;2023-02-28T11:16:33;5.90;48.30
45233;DHT22;30969;51.052;17.056;2023-02-28T11:21:37;6.00;48.80
45233;DHT22;30969;51.052;17.056;2023-02-28T11:26:44;6.10;47.50
45233;DHT22;30969;51.052;17.056;2023-02-28T11:32:11;6.20;47.30
45233;DHT22;30969;51.052;17.056;2023-02-28T11:37:17;6.30;48.00
45233;DHT22;30969;51.052;17.056;2023-02-28T11:42:31;6.40;48.90
45233;DHT22;30969;51.052;17.056;2023-02-28T11:47:47;6.60;47.50
45233;DHT22;30969;51.052;17.056;2023-02-28T11:52:53;6.80;48.50
45233;DHT22;30969;51.052;17.056;2023-02-28T11:58:10;6.90;49.10
45233;DHT22;30969;51.052;17.056;2023-02-28T12:03:27;7.00;47.70
45233;DHT22;30969;51.052;17.056;2023-02-28T12:08:47;7.10;46.40
45233;DHT22;30969;51.052;17.056;2023-02-28T12:14:10;7.10;46.30
45233;DHT22;30969;51.052;17.056;2023-02-28T12:19:23;7.10;45.60
45233;DHT22;30969;51.052;17.056;2023-02-28T12:29:58;7.30;47.50
45233;DHT22;30969;51.052;17.056;2023-02-28T12:35:12;7.50;47.60
45233;DHT22;30969;51.052;17.056;2023-02-28T12:40:20;7.60;46.20
45233;DHT22;30969;51.052;17.056;2023-02-28T12:45:27;7.60;46.00
45233;DHT22;30969;51.052;17.056;2023-02-28T12:50:35;7.70;47.00
45233;DHT22;30969;51.052;17.056;2023-02-28T12:55:42;7.90;45.90
45233;DHT22;30969;51.052;17.056;2023-02-28T13:01:05;8.00;45.50
45233;DHT22;30969;51.052;17.056;2023-02-28T13:06:27;8.10;46.20
45233;DHT22;30969;51.052;17.056;2023-02-28T13:11:33;8.20;45.40
45233;DHT22;30969;51.052;17.056;2023-02-28T13:16:54;8.20;45.30
45233;DHT22;30969;51.052;17.056;2023-02-28T13:22:02;8.30;45.50
45233;DHT22;30969;51.052;17.056;2023-02-28T13:27:32;8.40;45.70
45233;DHT22;30969;51.052;17.056;2023-02-28T13:32:39;8.50;45.20
45233;DHT22;30969;51.052;17.056;2023-02-28T13:37:47;8.60;44.40
45233;DHT22;30969;51.052;17.056;2023-02-28T13:42:53;8.70;44.50
45233;DHT22;30969;51.052;17.056;2023-02-28T13:48:02;8.80;42.90
45233;DHT22;30969;51.052;17.056;2023-02-28T13:53:35;8.80;43.70
45233;DHT22;30969;51.052;17.056;2023-02-28T13:58:52;8.90;44.20
45233;DHT22;30969;51.052;17.056;2023-02-28T14:09:29;9.00;44.20
45233;DHT22;30969;51.052;17.056;2023-02-28T14:14:53;9.00;44.50
45233;DHT22;30969;51.052;17.056;2023-02-28T14:19:58;9.20;44.20
45233;DHT22;30969;51.052;17.056;2023-02-28T14:25:14;9.20;44.60
45233;DHT22;30969;51.052;17.056;2023-02-28T14:30:43;9.20;43.90
45233;DHT22;30969;51.052;17.056;2023-02-28T14:35:57;9.10;44.50
45233;DHT22;30969;51.052;17.056;2023-02-28T14:41:14;9.20;44.40
45233;DHT22;30969;51.052;17.056;2023-02-28T14:46:20;9.30;44.50
45233;DHT22;30969;51.052;17.056;2023-02-28T14:51:24;9.30;43.90
45233;DHT22;30969;51.052;17.056;2023-02-28T14:56:34;9.20;42.90
45233;DHT22;30969;51.052;17.056;2023-02-28T15:01:38;9.10;43.80
45233;DHT22;30969;51.052;17.056;2023-02-28T15:06:41;8.90;43.10
45233;DHT22;30969;51.052;17.056;2023-02-28T15:11:48;8.80;43.70
45233;DHT22;30969;51.052;17.056;2023-02-28T15:16:57;8.70;43.60
45233;DHT22;30969;51.052;17.056;2023-02-28T15:22:06;8.50;43.60
45233;DHT22;30969;51.052;17.056;2023-02-28T15:27:14;8.40;43.90
45233;DHT22;30969;51.052;17.056;2023-02-28T15:32:25;8.30;43.40
45233;DHT22;30969;51.052;17.056;2023-02-28T15:37:40;8.10;43.60
45233;DHT22;30969;51.052;17.056;2023-02-28T15:43:00;8.10;44.30
45233;DHT22;30969;51.052;17.056;2023-02-28T15:48:16;8.00;45.70
45233;DHT22;30969;51.052;17.056;2023-02-28T15:53:22;8.00;44.80
45233;DHT22;30969;51.052;17.056;2023-02-28T15:58:27;7.90;45.90
45233;DHT22;30969;51.052;17.056;2023-02-28T16:03:42;7.80;44.90
45233;DHT22;30969;51.052;17.056;2023-02-28T16:08:48;7.70;45.30
45233;DHT22;30969;51.052;17.056;2023-02-28T16:13:55;7.60;45.50
45233;DHT22;30969;51.052;17.056;2023-02-28T16:18:58;7.60;45.50
45233;DHT22;30969;51.052;17.056;2023-02-28T16:24:02;7.40;45.50
45233;DHT22;30969;51.052;17.056;2023-02-28T16:29:08;7.30;45.80
45233;DHT22;30969;51.052;17.056;2023-02-28T16:34:14;7.10;46.10
45233;DHT22;30969;51.052;17.056;2023-02-28T16:39:17;7.00;46.50
45233;DHT22;30969;51.052;17.056;2023-02-28T16:44:27;6.90;46.80
45233;DHT22;30969;51.052;17.056;2023-02-28T16:49:31;6.80;47.20
45233;DHT22;30969;51.052;17.056;2023-02-28T16:54:35;6.70;47.40
45233;DHT22;30969;51.052;17.056;2023-02-28T16:59:40;6.60;47.60
45233;DHT22;30969;51.052;17.056;2023-02-28T17:04:43;6.50;47.80
45233;DHT22;30969;51.052;17.056;2023-02-28T17:09:48;6.40;48.00
45233;DHT22;30969;51.052;17.056;2023-02-28T17:14:52;6.30;48.20
45233;DHT22;30969;51.052;17.056;2023-02-28T17:19:56;6.20;48.60
45233;DHT22;30969;51.052;17.056;2023-02-28T17:24:59;6.10;48.90
45233;DHT22;30969;51.052;17.056;2023-02-28T17:30:14;6.00;49.20
45233;DHT22;30969;51.052;17.056;2023-02-28T17:35:18;5.70;50.60
45233;DHT22;30969;51.052;17.056;2023-02-28T17:40:23;5.60;50.00
45233;DHT22;30969;51.052;17.056;2023-02-28T17:45:28;5.50;50.40
45233;DHT22;30969;51.052;17.056;2023-02-28T17:50:32;5.40;50.30
45233;DHT22;30969;51.052;17.056;2023-02-28T17:55:36;5.30;50.70
45233;DHT22;30969;51.052;17.056;2023-02-28T18:00:41;5.20;51.00
45233;DHT22;30969;51.052;17.056;2023-02-28T18:05:44;5.10;51.20
45233;DHT22;30969;51.052;17.056;2023-02-28T18:10:48;5.00;51.50
45233;DHT22;30969;51.052;17.056;2023-02-28T18:15:53;4.90;51.70
45233;DHT22;30969;51.052;17.056;2023-02-28T18:20:56;4.90;51.90
45233;DHT22;30969;51.052;17.056;2023-02-28T18:25:59;4.80;51.90
45233;DHT22;30969;51.052;17.056;2023-02-28T18:31:08;4.70;52.10
45233;DHT22;30969;51.052;17.056;2023-02-28T18:36:12;4.70;52.30
45233;DHT22;30969;51.052;17.056;2023-02-28T18:41:16;4.50;52.70
45233;DHT22;30969;51.052;17.056;2023-02-28T18:46:24;4.40;52.90
45233;DHT22;30969;51.052;17.056;2023-02-28T18:51:29;4.40;52.80
45233;DHT22;30969;51.052;17.056;2023-02-28T18:56:32;4.30;52.80
45233;DHT22;30969;51.052;17.056;2023-02-28T19:01:37;4.20;53.30
45233;DHT22;30969;51.052;17.056;2023-02-28T19:06:42;4.10;53.50
45233;DHT22;30969;51.052;17.056;2023-02-28T19:11:45;4.10;53.60
45233;DHT22;30969;51.052;17.056;2023-02-28T19:16:50;4.00;53.70
45233;DHT22;30969;51.052;17.056;2023-02-28T19:21:54;4.00;53.80
45233;DHT22;30969;51.052;17.056;2023-02-28T19:26:57;3.90;54.00
45233;DHT22;30969;51.052;17.056;2023-02-28T19:32:02;3.80;54.10
45233;DHT22;30969;51.052;17.056;2023-02-28T19:37:06;3.80;54.50
45233;DHT22;30969;51.052;17.056;2023-02-28T19:42:10;3.70;54.60
45233;DHT22;30969;51.052;17.056;2023-02-28T19:47:16;3.70;54.70
45233;DHT22;30969;51.052;17.056;2023-02-28T19:52:20;3.60;55.00
45233;DHT22;30969;51.052;17.056;2023-02-28T19:57:23;3.50;55.40
45233;DHT22;30969;51.052;17.056;2023-02-28T20:02:28;3.60;55.50
45233;DHT22;30969;51.052;17.056;2023-02-28T20:07:32;3.60;55.60
45233;DHT22;30969;51.052;17.056;2023-02-28T20:12:35;3.40;55.80
45233;DHT22;30969;51.052;17.056;2023-02-28T20:17:40;3.40;56.10
45233;DHT22;30969;51.052;17.056;2023-02-28T20:22:44;3.30;56.50
45233;DHT22;30969;51.052;17.056;2023-02-28T20:27:48;3.30;56.50
45233;DHT22;30969;51.052;17.056;2023-02-28T20:32:52;3.30;56.50
45233;DHT22;30969;51.052;17.056;2023-02-28T20:37:56;3.30;56.80
45233;DHT22;30969;51.052;17.056;2023-02-28T20:42:59;3.30;56.80
45233;DHT22;30969;51.052;17.056;2023-02-28T20:48:05;3.20;57.00
45233;DHT22;30969;51.052;17.056;2023-02-28T20:53:08;3.20;57.20
45233;DHT22;30969;51.052;17.056;2023-02-28T20:58:11;3.20;57.30
45233;DHT22;30969;51.052;17.056;2023-02-28T21:03:16;3.20;57.40
45233;DHT22;30969;51.052;17.056;2023-02-28T21:08:20;3.30;57.40
45233;DHT22;30969;51.052;17.056;2023-02-28T21:13:23;3.30;57.10
45233;DHT22;30969;51.052;17.056;2023-02-28T21:18:29;3.20;57.50
45233;DHT22;30969;51.052;17.056;2023-02-28T21:23:32;3.00;58.00
45233;DHT22;30969;51.052;17.056;2023-02-28T21:28:37;3.00;58.20
45233;DHT22;30969;51.052;17.056;2023-02-28T21:33:47;3.00;58.50
45233;DHT22;30969;51.052;17.056;2023-02-28T21:38:54;3.00;58.60
45233;DHT22;30969;51.052;17.056;2023-02-28T21:43:58;3.00;58.60
45233;DHT22;30969;51.052;17.056;2023-02-28T21:49:03;3.10;58.50
45233;DHT22;30969;51.052;17.056;2023-02-28T21:54:07;3.10;58.30
45233;DHT22;30969;51.052;17.056;2023-02-28T21:59:12;3.10;58.40
45233;DHT22;30969;51.052;17.056;2023-02-28T22:04:17;3.20;58.30
45233;DHT22;30969;51.052;17.056;2023-02-28T22:09:24;3.20;58.20
45233;DHT22;30969;51.052;17.056;2023-02-28T22:14:27;3.30;58.20
45233;DHT22;30969;51.052;17.056;2023-02-28T22:19:32;3.30;58.00
45233;DHT22;30969;51.052;17.056;2023-02-28T22:24:38;3.40;57.90
45233;DHT22;30969;51.052;17.056;2023-02-28T22:29:42;3.40;57.90
45233;DHT22;30969;51.052;17.056;2023-02-28T22:34:49;3.30;57.90
45233;DHT22;30969;51.052;17.056;2023-02-28T22:39:52;3.30;58.20
45233;DHT22;30969;51.052;17.056;2023-02-28T22:44:56;3.20;58.30
45233;DHT22;30969;51.052;17.056;2023-02-28T22:50:00;3.20;58.50
45233;DHT22;30969;51.052;17.056;2023-02-28T22:55:05;3.10;58.50
45233;DHT22;30969;51.052;17.056;2023-02-28T23:00:10;3.10;58.70
45233;DHT22;30969;51.052;17.056;2023-02-28T23:05:18;3.10;58.70
45233;DHT22;30969;51.052;17.056;2023-02-28T23:10:21;3.10;58.80
45233;DHT22;30969;51.052;17.056;2023-02-28T23:15:25;3.00;58.90
45233;DHT22;30969;51.052;17.056;2023-02-28T23:20:29;2.90;59.20
45233;DHT22;30969;51.052;17.056;2023-02-28T23:25:38;2.80;59.40
45233;DHT22;30969;51.052;17.056;2023-02-28T23:30:44;2.80;59.60
45233;DHT22;30969;51.052;17.056;2023-02-28T23:35:49;2.70;59.80
45233;DHT22;30969;51.052;17.056;2023-02-28T23:40:53;2.70;60.00
45233;DHT22;30969;51.052;17.056;2023-02-28T23:45:56;2.70;59.90
45233;DHT22;30969;51.052;17.056;2023-02-28T23:51:03;2.70;59.70
45233;DHT22;30969;51.052;17.056;2023-02-28T23:56:11;2.80;59.80
